createdAt,value
2022-10-28T00:00:52.464Z,12.40
2022-10-28T00:03:58.870Z,12.38
2022-10-28T00:07:00.395Z,12.41
2022-10-28T00:10:01.862Z,12.42
2022-10-28T00:13:03.513Z,12.41
2022-10-28T00:16:07.668Z,12.38
2022-10-28T00:19:10.985Z,12.39
2022-10-28T00:22:12.577Z,12.35
2022-10-28T00:25:16.845Z,12.37
2022-10-28T00:28:19.004Z,12.36
2022-10-28T00:31:22.690Z,12.37
2022-10-28T00:34:24.246Z,12.20
2022-10-28T00:37:25.870Z,12.42
2022-10-28T00:40:27.385Z,12.47
2022-10-28T00:43:56.347Z,12.40
2022-10-28T00:46:58.168Z,12.34
2022-10-28T00:50:11.977Z,12.29
2022-10-28T00:53:23.848Z,12.26
2022-10-28T00:56:28.533Z,12.27
2022-10-28T00:59:35.129Z,12.24
2022-10-28T01:02:44.624Z,12.25
2022-10-28T01:05:48.166Z,12.24
2022-10-28T01:08:49.752Z,12.20
2022-10-28T01:12:06.209Z,12.19
2022-10-28T01:15:27.108Z,12.16
2022-10-28T01:18:55.817Z,12.11
2022-10-28T01:22:19.039Z,12.09
2022-10-28T01:25:58.382Z,12.10
2022-10-28T01:29:35.761Z,12.09
2022-10-28T01:32:43.340Z,12.15
2022-10-28T01:36:06.066Z,12.18
2022-10-28T01:39:41.784Z,12.18
2022-10-28T01:43:21.615Z,12.20
2022-10-28T01:46:31.206Z,12.22
2022-10-28T01:49:45.324Z,12.22
2022-10-28T01:52:48.421Z,12.19
2022-10-28T01:55:55.068Z,12.20
2022-10-28T01:59:00.679Z,12.21
2022-10-28T02:05:43.530Z,12.20
2022-10-28T02:09:03.383Z,12.18
2022-10-28T02:12:23.202Z,12.25
2022-10-28T02:15:40.251Z,12.26
2022-10-28T02:19:07.227Z,12.22
2022-10-28T02:22:24.757Z,12.24
2022-10-28T02:25:35.003Z,12.23
2022-10-28T02:28:44.174Z,12.21
2022-10-28T02:32:04.116Z,12.22
2022-10-28T02:35:11.525Z,12.27
2022-10-28T02:38:20.343Z,12.29
2022-10-28T02:41:30.157Z,12.33
2022-10-28T02:44:35.552Z,12.31
2022-10-28T02:47:43.846Z,12.34
2022-10-28T02:51:01.968Z,12.40
2022-10-28T02:54:10.891Z,12.43
2022-10-28T02:57:19.626Z,12.44
2022-10-28T03:00:24.572Z,12.41
2022-10-28T03:03:26.161Z,12.41
2022-10-28T03:06:27.674Z,12.41
2022-10-28T03:09:29.234Z,12.43
2022-10-28T03:12:30.800Z,12.49
2022-10-28T03:15:32.460Z,12.56
2022-10-28T03:18:33.970Z,12.69
2022-10-28T03:21:35.549Z,12.80
2022-10-28T03:24:37.097Z,12.85
2022-10-28T03:27:41.639Z,12.86
2022-10-28T03:30:43.161Z,12.88
2022-10-28T03:33:44.734Z,12.88
2022-10-28T03:36:46.184Z,12.88
2022-10-28T03:39:49.289Z,12.99
2022-10-28T03:42:51.075Z,13.01
2022-10-28T03:45:52.812Z,13.09
2022-10-28T03:48:54.294Z,13.20
2022-10-28T03:51:55.867Z,13.32
2022-10-28T03:54:57.363Z,13.36
2022-10-28T03:58:02.469Z,13.34
2022-10-28T04:01:04.187Z,13.25
2022-10-28T04:04:05.895Z,13.27
2022-10-28T04:07:07.392Z,13.22
2022-10-28T04:10:09.316Z,13.23
2022-10-28T04:13:11.732Z,13.24
2022-10-28T04:16:13.245Z,13.28
2022-10-28T04:19:14.725Z,13.28
2022-10-28T04:22:16.353Z,13.29
2022-10-28T04:25:18.258Z,13.28
2022-10-28T04:28:21.291Z,13.36
2022-10-28T04:31:25.417Z,13.37
2022-10-28T04:34:27.009Z,13.39
2022-10-28T04:37:28.649Z,13.38
2022-10-28T04:40:30.148Z,13.39
2022-10-28T04:43:34.656Z,13.46
2022-10-28T04:46:36.247Z,13.55
2022-10-28T04:49:38.805Z,13.59
2022-10-28T04:52:42.316Z,13.59
2022-10-28T04:55:43.878Z,13.61
2022-10-28T04:58:47.435Z,13.56
2022-10-28T05:01:49.013Z,13.56
2022-10-28T05:04:50.651Z,13.54
2022-10-28T05:07:52.530Z,13.59
2022-10-28T05:10:54.449Z,13.59
2022-10-28T05:13:56.125Z,13.69
2022-10-28T05:16:57.631Z,13.69
2022-10-28T05:19:59.193Z,13.68
2022-10-28T05:23:00.788Z,13.71
2022-10-28T05:26:02.329Z,13.77
2022-10-28T05:29:04.465Z,13.81
2022-10-28T05:32:06.177Z,14.02
2022-10-28T05:35:08.763Z,14.08
2022-10-28T05:38:10.372Z,14.13
2022-10-28T05:41:17.018Z,14.16
2022-10-28T05:44:18.616Z,14.19
2022-10-28T05:47:20.120Z,14.21
2022-10-28T05:50:21.844Z,14.18
2022-10-28T05:53:23.360Z,14.10
2022-10-28T05:56:24.845Z,14.05
2022-10-28T05:59:26.385Z,14.12
2022-10-28T06:02:28.005Z,14.17
2022-10-28T06:05:29.600Z,14.17
2022-10-28T06:08:31.377Z,14.11
2022-10-28T06:11:33.101Z,14.09
2022-10-28T06:14:34.601Z,14.01
2022-10-28T06:17:36.186Z,14.00
2022-10-28T06:20:37.707Z,13.97
2022-10-28T06:23:39.256Z,13.96
2022-10-28T06:26:40.774Z,13.95
2022-10-28T06:29:42.258Z,13.90
2022-10-28T06:32:43.787Z,13.84
2022-10-28T06:35:45.280Z,13.85
2022-10-28T06:38:46.794Z,13.92
2022-10-28T06:41:48.807Z,14.00
2022-10-28T06:44:50.672Z,14.05
2022-10-28T06:48:02.485Z,14.10
2022-10-28T06:51:04.202Z,14.11
2022-10-28T06:54:05.818Z,14.25
2022-10-28T06:57:07.309Z,14.28
2022-10-28T07:00:09.319Z,14.36
2022-10-28T07:03:10.902Z,14.45
2022-10-28T07:09:18.973Z,14.70
2022-10-28T07:12:20.522Z,14.82
2022-10-28T07:15:22.219Z,14.89
2022-10-28T07:18:25.310Z,14.95
2022-10-28T07:21:28.509Z,15.05
2022-10-28T07:24:30.074Z,15.20
2022-10-28T07:27:31.595Z,15.34
2022-10-28T07:30:33.657Z,15.44
2022-10-28T07:33:35.312Z,15.50
2022-10-28T07:36:37.138Z,15.59
2022-10-28T07:39:39.178Z,15.67
2022-10-28T07:42:40.758Z,15.79
2022-10-28T07:45:42.422Z,15.86
2022-10-28T07:48:43.936Z,16.01
2022-10-28T07:51:45.975Z,16.13
2022-10-28T07:54:47.510Z,16.23
2022-10-28T07:57:49.306Z,16.35
2022-10-28T08:00:50.936Z,16.40
2022-10-28T08:03:52.484Z,16.46
2022-10-28T08:10:00.311Z,16.83
2022-10-28T08:13:02.229Z,16.97
2022-10-28T08:16:03.858Z,17.16
2022-10-28T08:19:07.619Z,17.25
2022-10-28T08:22:09.532Z,17.37
2022-10-28T08:25:11.074Z,17.56
2022-10-28T08:28:12.563Z,17.70
2022-10-28T08:31:14.506Z,17.84
2022-10-28T08:34:16.064Z,17.96
2022-10-28T08:37:17.753Z,17.97
2022-10-28T08:40:32.343Z,17.89
2022-10-28T08:43:57.653Z,17.79
2022-10-28T08:47:05.679Z,17.66
2022-10-28T08:50:16.379Z,17.63
2022-10-28T08:53:33.895Z,17.69
2022-10-28T08:56:45.960Z,17.94
2022-10-28T08:59:52.090Z,18.17
2022-10-28T09:03:11.950Z,18.42
2022-10-28T09:06:13.612Z,18.69
2022-10-28T09:09:20.267Z,19.05
2022-10-28T09:12:23.169Z,19.54
2022-10-28T09:15:52.486Z,19.85
2022-10-28T09:18:56.774Z,20.11
2022-10-28T09:22:21.095Z,20.51
2022-10-28T09:25:25.399Z,20.87
2022-10-28T09:28:53.306Z,21.16
2022-10-28T09:32:13.216Z,21.29
2022-10-28T09:35:22.062Z,21.38
2022-10-28T09:38:29.648Z,21.35
2022-10-28T09:41:38.828Z,21.13
2022-10-28T09:44:46.083Z,21.12
2022-10-28T09:48:23.222Z,21.30
2022-10-28T09:51:34.616Z,21.64
2022-10-28T09:54:40.307Z,22.17
2022-10-28T09:57:41.867Z,22.49
2022-10-28T10:00:43.445Z,22.62
2022-10-28T10:03:48.948Z,22.91
2022-10-28T10:06:55.300Z,23.17
2022-10-28T10:09:59.968Z,23.25
2022-10-28T10:13:04.726Z,23.51
2022-10-28T10:16:21.415Z,23.67
2022-10-28T10:19:23.254Z,23.66
2022-10-28T10:22:31.449Z,23.63
2022-10-28T10:25:33.184Z,23.57
2022-10-28T10:28:45.495Z,23.56
2022-10-28T10:31:47.887Z,23.66
2022-10-28T10:35:21.688Z,23.80
2022-10-28T10:38:23.355Z,23.74
2022-10-28T10:41:36.405Z,23.60
2022-10-28T10:44:37.921Z,23.53
2022-10-28T10:47:39.571Z,23.54
2022-10-28T10:50:43.751Z,23.56
2022-10-28T10:53:50.123Z,23.54
2022-10-28T10:56:51.964Z,23.44
2022-10-28T10:59:55.325Z,23.36
2022-10-28T11:02:57.968Z,23.45
2022-10-28T11:06:21.939Z,23.66
2022-10-28T11:09:35.428Z,23.86
2022-10-28T11:12:37.249Z,24.01
2022-10-28T11:15:39.448Z,24.11
2022-10-28T11:18:43.873Z,24.21
2022-10-28T11:22:38.283Z,24.37
2022-10-28T11:25:44.611Z,24.54
2022-10-28T11:29:13.045Z,24.71
2022-10-28T11:32:20.282Z,24.94
2022-10-28T11:35:49.953Z,25.17
2022-10-28T11:39:14.079Z,25.45
2022-10-28T11:42:51.188Z,25.88
2022-10-28T11:46:17.824Z,26.07
2022-10-28T11:49:19.295Z,26.10
2022-10-28T11:52:51.214Z,25.98
2022-10-28T11:56:02.723Z,26.02
2022-10-28T11:59:41.841Z,26.19
2022-10-28T12:02:49.387Z,26.12
2022-10-28T12:06:04.771Z,25.90
2022-10-28T12:09:14.530Z,25.79
2022-10-28T12:12:18.795Z,26.01
2022-10-28T12:15:34.142Z,26.34
2022-10-28T12:18:46.997Z,26.45
2022-10-28T12:22:04.299Z,26.55
2022-10-28T12:25:15.931Z,26.44
2022-10-28T12:28:42.298Z,26.19
2022-10-28T12:31:48.960Z,25.99
2022-10-28T12:34:59.390Z,25.98
2022-10-28T12:38:09.271Z,26.22
2022-10-28T12:41:16.913Z,26.56
2022-10-28T12:44:21.063Z,26.79
2022-10-28T12:47:25.543Z,26.73
2022-10-28T12:50:39.208Z,26.63
2022-10-28T12:54:00.275Z,26.65
2022-10-28T12:57:10.781Z,26.77
2022-10-28T13:00:26.493Z,26.82
2022-10-28T13:03:28.151Z,26.74
2022-10-28T13:10:17.342Z,26.65
2022-10-28T13:13:28.584Z,26.61
2022-10-28T13:16:54.849Z,26.62
2022-10-28T13:20:06.247Z,26.45
2022-10-28T13:23:36.793Z,26.39
2022-10-28T13:26:42.608Z,26.39
2022-10-28T13:29:51.143Z,26.37
2022-10-28T13:33:19.093Z,26.34
2022-10-28T13:36:25.092Z,26.33
2022-10-28T13:39:29.388Z,26.27
2022-10-28T13:42:45.609Z,26.25
2022-10-28T13:45:55.421Z,26.26
2022-10-28T13:49:21.931Z,26.22
2022-10-28T13:52:23.491Z,26.26
2022-10-28T13:55:44.335Z,26.28
2022-10-28T13:58:55.139Z,26.37
2022-10-28T14:02:02.239Z,26.40
2022-10-28T14:05:12.495Z,26.17
2022-10-28T14:08:22.793Z,25.96
2022-10-28T14:11:30.390Z,25.93
2022-10-28T14:14:32.444Z,25.93
2022-10-28T14:17:39.459Z,26.00
2022-10-28T14:20:53.077Z,25.88
2022-10-28T14:24:09.383Z,25.73
2022-10-28T14:27:15.280Z,25.58
2022-10-28T14:30:19.799Z,25.35
2022-10-28T14:33:22.073Z,25.07
2022-10-28T14:36:40.407Z,24.85
2022-10-28T14:39:58.506Z,24.50
2022-10-28T14:43:06.228Z,24.27
2022-10-28T14:46:23.149Z,24.35
2022-10-28T14:49:27.535Z,24.74
2022-10-28T14:52:36.295Z,25.36
2022-10-28T14:55:39.032Z,25.23
2022-10-28T14:58:42.596Z,24.94
2022-10-28T15:02:11.276Z,24.63
2022-10-28T15:05:20.490Z,24.40
2022-10-28T15:08:24.574Z,24.15
2022-10-28T15:11:26.144Z,23.98
2022-10-28T15:14:31.598Z,23.82
2022-10-28T15:17:42.378Z,23.58
2022-10-28T15:20:43.945Z,23.30
2022-10-28T15:23:47.467Z,23.13
2022-10-28T15:26:53.142Z,22.92
2022-10-28T15:29:55.815Z,22.70
2022-10-28T15:33:18.929Z,22.42
2022-10-28T15:36:26.221Z,22.14
2022-10-28T15:39:28.351Z,21.89
2022-10-28T15:42:37.732Z,21.64
2022-10-28T15:45:42.505Z,21.37
2022-10-28T15:48:44.430Z,21.18
2022-10-28T15:52:17.557Z,21.02
2022-10-28T15:55:19.025Z,20.84
2022-10-28T15:58:20.562Z,20.61
2022-10-28T16:01:40.628Z,20.37
2022-10-28T16:04:44.703Z,20.10
2022-10-28T16:07:46.214Z,19.94
2022-10-28T16:10:52.887Z,19.72
2022-10-28T16:13:54.522Z,19.51
2022-10-28T16:17:02.987Z,19.32
2022-10-28T16:20:17.295Z,19.15
2022-10-28T16:23:23.979Z,18.99
2022-10-28T16:26:27.486Z,18.91
2022-10-28T16:29:28.990Z,18.90
2022-10-28T16:32:38.346Z,18.79
2022-10-28T16:35:39.826Z,18.69
2022-10-28T16:38:41.348Z,18.54
2022-10-28T16:41:42.908Z,18.46
2022-10-28T16:44:44.678Z,18.38
2022-10-28T16:47:46.152Z,18.24
2022-10-28T16:50:50.880Z,18.15
2022-10-28T16:53:52.432Z,18.07
2022-10-28T16:56:53.907Z,18.01
2022-10-28T16:59:55.512Z,17.99
2022-10-28T17:02:57.030Z,17.87
2022-10-28T17:05:58.513Z,17.73
2022-10-28T17:09:03.236Z,17.63
2022-10-28T17:12:05.282Z,17.56
2022-10-28T17:15:07.350Z,17.39
2022-10-28T17:18:14.991Z,17.30
2022-10-28T17:21:16.632Z,17.24
2022-10-28T17:24:18.133Z,17.18
2022-10-28T17:27:19.642Z,17.07
2022-10-28T17:30:21.571Z,17.02
2022-10-28T17:33:23.152Z,16.92
2022-10-28T17:36:24.759Z,16.83
2022-10-28T17:39:26.740Z,16.67
2022-10-28T17:42:28.745Z,16.80
2022-10-28T17:45:30.200Z,16.75
2022-10-28T17:48:31.811Z,16.73
2022-10-28T17:51:33.311Z,16.68
2022-10-28T17:54:34.877Z,16.60
2022-10-28T17:57:36.542Z,16.57
2022-10-28T18:00:48.094Z,16.45
2022-10-28T18:03:51.696Z,16.35
2022-10-28T18:06:55.161Z,16.34
2022-10-28T18:09:56.861Z,16.31
2022-10-28T18:12:58.375Z,16.28
2022-10-28T18:16:04.846Z,16.17
2022-10-28T18:19:07.288Z,16.09
2022-10-28T18:22:09.024Z,16.04
2022-10-28T18:25:10.470Z,16.00
2022-10-28T18:28:12.014Z,15.95
2022-10-28T18:31:16.488Z,15.82
2022-10-28T18:34:18.160Z,15.71
2022-10-28T18:37:19.652Z,15.73
2022-10-28T18:40:21.219Z,15.78
2022-10-28T18:43:23.741Z,15.78
2022-10-28T18:46:25.772Z,15.64
2022-10-28T18:49:27.321Z,15.47
2022-10-28T18:52:28.803Z,15.39
2022-10-28T18:55:30.500Z,15.33
2022-10-28T18:58:34.285Z,15.26
2022-10-28T19:01:37.473Z,15.30
2022-10-28T19:04:38.975Z,15.31
2022-10-28T19:07:40.466Z,15.36
2022-10-28T19:10:42.067Z,15.36
2022-10-28T19:13:44.128Z,15.30
2022-10-28T19:16:45.654Z,15.24
2022-10-28T19:19:49.060Z,15.08
2022-10-28T19:22:50.790Z,15.13
2022-10-28T19:26:03.941Z,15.18
2022-10-28T19:29:08.571Z,15.19
2022-10-28T19:32:10.009Z,15.21
2022-10-28T19:35:11.526Z,15.17
2022-10-28T19:38:13.015Z,15.12
2022-10-28T19:41:19.555Z,14.85
2022-10-28T19:44:33.617Z,14.80
2022-10-28T19:47:35.169Z,14.82
2022-10-28T19:50:36.663Z,14.86
2022-10-28T19:53:38.436Z,14.87
2022-10-28T19:56:45.363Z,14.82
2022-10-28T19:59:47.212Z,14.80
2022-10-28T20:02:49.007Z,14.68
2022-10-28T20:06:10.836Z,14.62
2022-10-28T20:09:12.545Z,14.65
2022-10-28T20:12:14.052Z,14.71
2022-10-28T20:15:15.573Z,14.72
2022-10-28T20:18:17.110Z,14.69
2022-10-28T20:21:20.623Z,14.66
2022-10-28T20:24:22.319Z,14.62
2022-10-28T20:27:23.854Z,14.55
2022-10-28T20:30:25.439Z,14.44
2022-10-28T20:33:28.251Z,14.46
2022-10-28T20:36:38.195Z,14.39
2022-10-28T20:39:39.908Z,14.42
2022-10-28T20:42:42.197Z,14.32
2022-10-28T20:45:43.828Z,14.31
2022-10-28T20:48:45.634Z,14.31
2022-10-28T20:51:47.226Z,14.29
2022-10-28T20:54:48.837Z,14.23
2022-10-28T20:57:50.352Z,14.21
2022-10-28T21:00:55.562Z,14.19
2022-10-28T21:03:59.168Z,14.16
2022-10-28T21:07:00.781Z,14.18
2022-10-28T21:10:02.492Z,14.15
2022-10-28T21:13:05.108Z,14.02
2022-10-28T21:16:08.550Z,13.91
2022-10-28T21:19:10.085Z,13.91
2022-10-28T21:22:11.752Z,13.91
2022-10-28T21:25:13.395Z,13.95
2022-10-28T21:28:14.967Z,13.91
2022-10-28T21:31:18.148Z,13.87
2022-10-28T21:34:19.735Z,13.88
2022-10-28T21:37:21.334Z,13.87
2022-10-28T21:40:22.913Z,13.87
2022-10-28T21:43:27.364Z,13.93
2022-10-28T21:46:28.955Z,14.01
2022-10-28T21:49:30.490Z,13.99
2022-10-28T21:52:32.110Z,13.97
2022-10-28T21:55:45.938Z,13.94
2022-10-28T21:58:48.809Z,13.91
2022-10-28T22:01:50.583Z,13.88
2022-10-28T22:04:52.350Z,13.86
2022-10-28T22:07:54.151Z,13.85
2022-10-28T22:11:03.978Z,13.93
2022-10-28T22:14:05.659Z,13.96
2022-10-28T22:17:07.371Z,14.00
2022-10-28T22:20:10.796Z,14.03
2022-10-28T22:23:12.508Z,14.05
2022-10-28T22:26:17.936Z,13.98
2022-10-28T22:29:19.459Z,13.97
2022-10-28T22:32:21.135Z,13.98
2022-10-28T22:35:22.689Z,14.01
2022-10-28T22:38:24.760Z,13.98
2022-10-28T22:41:31.610Z,13.99
2022-10-28T22:44:33.323Z,14.02
2022-10-28T22:47:34.832Z,14.00
2022-10-28T22:50:36.424Z,14.00
2022-10-28T22:53:39.063Z,14.05
2022-10-28T22:56:40.858Z,14.15
2022-10-28T22:59:42.449Z,14.17
2022-10-28T23:02:44.138Z,14.14
2022-10-28T23:05:45.709Z,14.13
2022-10-28T23:08:47.585Z,14.10
2022-10-28T23:11:49.197Z,14.06
2022-10-28T23:14:50.828Z,14.04
2022-10-28T23:17:53.460Z,14.02
2022-10-28T23:20:55.370Z,14.00
2022-10-28T23:23:59.090Z,13.97
2022-10-28T23:27:00.584Z,14.01
2022-10-28T23:30:02.176Z,14.01
2022-10-28T23:33:03.894Z,14.02
2022-10-28T23:36:06.208Z,13.98
2022-10-28T23:39:07.818Z,13.94
2022-10-28T23:42:09.353Z,13.91
2022-10-28T23:45:10.951Z,13.88
2022-10-28T23:48:12.491Z,13.77
2022-10-28T23:51:14.211Z,13.66
2022-10-28T23:54:15.821Z,13.61
2022-10-28T23:57:17.410Z,13.59
